sensor_id;sensor_type;location;lat;lon;timestamp;pressure;altitude;pressure_sealevel;temperature;humidity
77799;BME280;66989;50.426;15.352;2023-04-01T00:01:33;96573.50;;;7.67;97.65
77799;BME280;66989;50.426;15.352;2023-04-01T00:03:59;96575.31;;;7.66;97.12
77799;BME280;66989;50.426;15.352;2023-04-01T00:06:27;96567.44;;;7.66;97.64
77799;BME280;66989;50.426;15.352;2023-04-01T00:08:52;96570.06;;;7.66;97.20
77799;BME280;66989;50.426;15.352;2023-04-01T00:11:18;96572.69;;;7.66;97.36
77799;BME280;66989;50.426;15.352;2023-04-01T00:13:44;96564.00;;;7.66;97.61
77799;BME280;66989;50.426;15.352;2023-04-01T00:16:09;96562.19;;;7.66;97.65
77799;BME280;66989;50.426;15.352;2023-04-01T00:18:35;96553.34;;;7.67;97.97
77799;BME280;66989;50.426;15.352;2023-04-01T00:21:01;96555.16;;;7.67;97.61
77799;BME280;66989;50.426;15.352;2023-04-01T00:23:26;96547.28;;;7.67;97.70
77799;BME280;66989;50.426;15.352;2023-04-01T00:25:52;96546.47;;;7.66;97.93
77799;BME280;66989;50.426;15.352;2023-04-01T00:28:18;96550.88;;;7.66;98.23
77799;BME280;66989;50.426;15.352;2023-04-01T00:30:44;96549.22;;;7.65;98.19
77799;BME280;66989;50.426;15.352;2023-04-01T00:33:09;96543.97;;;7.65;98.17
77799;BME280;66989;50.426;15.352;2023-04-01T00:35:35;96553.50;;;7.66;98.00
77799;BME280;66989;50.426;15.352;2023-04-01T00:38:01;96544.81;;;7.65;98.14
77799;BME280;66989;50.426;15.352;2023-04-01T00:40:30;96550.06;;;7.65;98.12
77799;BME280;66989;50.426;15.352;2023-04-01T00:42:55;96543.16;;;7.64;97.87
77799;BME280;66989;50.426;15.352;2023-04-01T00:45:38;96550.88;;;7.66;98.03
77799;BME280;66989;50.426;15.352;2023-04-01T00:48:16;96549.22;;;7.65;98.06
77799;BME280;66989;50.426;15.352;2023-04-01T00:50:46;96545.91;;;7.63;98.20
77799;BME280;66989;50.426;15.352;2023-04-01T00:53:14;96548.41;;;7.64;98.30
77799;BME280;66989;50.426;15.352;2023-04-01T00:55:46;96549.34;;;7.63;98.21
77799;BME280;66989;50.426;15.352;2023-04-01T00:58:17;96549.22;;;7.65;97.82
77799;BME280;66989;50.426;15.352;2023-04-01T01:00:45;96540.38;;;7.66;97.75
77799;BME280;66989;50.426;15.352;2023-04-01T01:03:11;96542.19;;;7.65;97.78
77799;BME280;66989;50.426;15.352;2023-04-01T01:09:20;96535.28;;;7.64;97.65
77799;BME280;66989;50.426;15.352;2023-04-01T01:23:34;96543.16;;;7.64;97.91
77799;BME280;66989;50.426;15.352;2023-04-01T01:37:01;96525.47;;;7.57;98.38
77799;BME280;66989;50.426;15.352;2023-04-01T01:39:31;96532.69;;;7.55;98.27
77799;BME280;66989;50.426;15.352;2023-04-01T01:42:02;96538.19;;;7.52;98.37
77799;BME280;66989;50.426;15.352;2023-04-01T01:44:30;96535.56;;;7.52;98.71
77799;BME280;66989;50.426;15.352;2023-04-01T01:46:57;96531.44;;;7.49;99.01
77799;BME280;66989;50.426;15.352;2023-04-01T01:49:24;96532.53;;;7.46;98.77
77799;BME280;66989;50.426;15.352;2023-04-01T01:51:50;96535.16;;;7.46;98.99
77799;BME280;66989;50.426;15.352;2023-04-01T01:54:17;96534.47;;;7.44;99.14
77799;BME280;66989;50.426;15.352;2023-04-01T01:56:46;96530.22;;;7.43;99.40
77799;BME280;66989;50.426;15.352;2023-04-01T01:59:14;96533.78;;;7.42;99.78
77799;BME280;66989;50.426;15.352;2023-04-01T02:01:43;96527.69;;;7.42;99.50
77799;BME280;66989;50.426;15.352;2023-04-01T02:04:10;96537.38;;;7.41;99.64
77799;BME280;66989;50.426;15.352;2023-04-01T02:06:41;96535.88;;;7.39;99.65
77799;BME280;66989;50.426;15.352;2023-04-01T02:09:08;96538.59;;;7.37;99.52
77799;BME280;66989;50.426;15.352;2023-04-01T02:11:52;96544.81;;;7.36;100.00
77799;BME280;66989;50.426;15.352;2023-04-01T02:14:23;96534.47;;;7.35;100.00
77799;BME280;66989;50.426;15.352;2023-04-01T02:17:02;96532.69;;;7.35;100.00
77799;BME280;66989;50.426;15.352;2023-04-01T02:19:33;96534.34;;;7.36;100.00
77799;BME280;66989;50.426;15.352;2023-04-01T02:22:03;96531.72;;;7.36;100.00
77799;BME280;66989;50.426;15.352;2023-04-01T02:24:31;96534.34;;;7.36;100.00
77799;BME280;66989;50.426;15.352;2023-04-01T02:26:58;96529.91;;;7.37;100.00
77799;BME280;66989;50.426;15.352;2023-04-01T02:29:24;96527.84;;;7.40;99.76
77799;BME280;66989;50.426;15.352;2023-04-01T02:31:51;96532.13;;;7.41;99.86
77799;BME280;66989;50.426;15.352;2023-04-01T02:34:19;96525.78;;;7.44;99.60
77799;BME280;66989;50.426;15.352;2023-04-01T02:36:44;96536.38;;;7.42;99.60
77799;BME280;66989;50.426;15.352;2023-04-01T02:39:10;96537.09;;;7.44;99.36
77799;BME280;66989;50.426;15.352;2023-04-01T02:41:43;96529.91;;;7.46;99.33
77799;BME280;66989;50.426;15.352;2023-04-01T02:44:10;96534.19;;;7.47;99.13
77799;BME280;66989;50.426;15.352;2023-04-01T02:46:37;96535.84;;;7.48;98.68
77799;BME280;66989;50.426;15.352;2023-04-01T02:49:03;96541.94;;;7.49;98.94
77799;BME280;66989;50.426;15.352;2023-04-01T02:51:29;96543.72;;;7.48;99.43
77799;BME280;66989;50.426;15.352;2023-04-01T02:53:55;96554.22;;;7.48;99.27
77799;BME280;66989;50.426;15.352;2023-04-01T02:56:20;96545.66;;;7.46;99.05
77799;BME280;66989;50.426;15.352;2023-04-01T02:58:46;96551.88;;;7.45;99.58
77799;BME280;66989;50.426;15.352;2023-04-01T03:01:12;96555.31;;;7.46;99.70
77799;BME280;66989;50.426;15.352;2023-04-01T03:03:37;96558.06;;;7.44;99.60
77799;BME280;66989;50.426;15.352;2023-04-01T03:06:07;96564.16;;;7.45;99.49
77799;BME280;66989;50.426;15.352;2023-04-01T03:08:33;96561.66;;;7.43;99.50
77799;BME280;66989;50.426;15.352;2023-04-01T03:10:59;96556.44;;;7.43;99.26
77799;BME280;66989;50.426;15.352;2023-04-01T03:13:24;96558.06;;;7.44;99.34
77799;BME280;66989;50.426;15.352;2023-04-01T03:15:51;96565.22;;;7.42;99.39
77799;BME280;66989;50.426;15.352;2023-04-01T03:18:16;96560.97;;;7.41;99.41
77799;BME280;66989;50.426;15.352;2023-04-01T03:20:41;96564.56;;;7.40;99.78
77799;BME280;66989;50.426;15.352;2023-04-01T03:23:07;96575.03;;;7.40;99.38
77799;BME280;66989;50.426;15.352;2023-04-01T03:25:33;96574.38;;;7.38;99.73
77799;BME280;66989;50.426;15.352;2023-04-01T03:27:58;96564.81;;;7.37;99.66
77799;BME280;66989;50.426;15.352;2023-04-01T03:30:25;96568.41;;;7.36;99.93
77799;BME280;66989;50.426;15.352;2023-04-01T03:32:51;96580.69;;;7.36;99.90
77799;BME280;66989;50.426;15.352;2023-04-01T03:35:16;96577.09;;;7.37;99.91
77799;BME280;66989;50.426;15.352;2023-04-01T03:37:42;96575.47;;;7.36;99.85
77799;BME280;66989;50.426;15.352;2023-04-01T03:40:07;96572.00;;;7.35;99.99
77799;BME280;66989;50.426;15.352;2023-04-01T03:42:33;96580.03;;;7.34;100.00
77799;BME280;66989;50.426;15.352;2023-04-01T03:44:58;96573.94;;;7.33;100.00
77799;BME280;66989;50.426;15.352;2023-04-01T03:47:24;96577.66;;;7.31;99.86
77799;BME280;66989;50.426;15.352;2023-04-01T03:49:49;96582.06;;;7.30;99.98
77799;BME280;66989;50.426;15.352;2023-04-01T03:52:15;96583.88;;;7.30;100.00
77799;BME280;66989;50.426;15.352;2023-04-01T03:54:40;96584.03;;;7.28;100.00
77799;BME280;66989;50.426;15.352;2023-04-01T03:57:06;96588.56;;;7.26;100.00
77799;BME280;66989;50.426;15.352;2023-04-01T03:59:31;96585.09;;;7.26;100.00
77799;BME280;66989;50.426;15.352;2023-04-01T04:01:56;96597.38;;;7.25;100.00
77799;BME280;66989;50.426;15.352;2023-04-01T04:04:22;96595.75;;;7.24;100.00
77799;BME280;66989;50.426;15.352;2023-04-01T04:06:47;96591.47;;;7.23;100.00
77799;BME280;66989;50.426;15.352;2023-04-01T04:09:13;96598.63;;;7.21;100.00
77799;BME280;66989;50.426;15.352;2023-04-01T04:11:38;96607.44;;;7.20;100.00
77799;BME280;66989;50.426;15.352;2023-04-01T04:14:04;96600.56;;;7.19;100.00
77799;BME280;66989;50.426;15.352;2023-04-01T04:16:30;96601.53;;;7.18;100.00
77799;BME280;66989;50.426;15.352;2023-04-01T04:18:55;96595.56;;;7.16;100.00
77799;BME280;66989;50.426;15.352;2023-04-01T04:21:21;96606.06;;;7.16;100.00
77799;BME280;66989;50.426;15.352;2023-04-01T04:23:46;96606.06;;;7.16;100.00
77799;BME280;66989;50.426;15.352;2023-04-01T04:26:13;96604.41;;;7.15;100.00
77799;BME280;66989;50.426;15.352;2023-04-01T04:28:39;96602.75;;;7.14;100.00
77799;BME280;66989;50.426;15.352;2023-04-01T04:31:05;96604.41;;;7.15;100.00
77799;BME280;66989;50.426;15.352;2023-04-01T04:33:32;96608.81;;;7.14;100.00
77799;BME280;66989;50.426;15.352;2023-04-01T04:35:58;96611.44;;;7.14;100.00
77799;BME280;66989;50.426;15.352;2023-04-01T04:38:31;96612.56;;;7.12;100.00
77799;BME280;66989;50.426;15.352;2023-04-01T04:40:57;96612.41;;;7.13;100.00
77799;BME280;66989;50.426;15.352;2023-04-01T04:43:23;96613.38;;;7.12;100.00
77799;BME280;66989;50.426;15.352;2023-04-01T04:45:48;96615.19;;;7.12;100.00
77799;BME280;66989;50.426;15.352;2023-04-01T04:48:16;96613.50;;;7.11;100.00
77799;BME280;66989;50.426;15.352;2023-04-01T04:50:49;96614.22;;;7.13;100.00
77799;BME280;66989;50.426;15.352;2023-04-01T04:53:16;96614.06;;;7.14;100.00
77799;BME280;66989;50.426;15.352;2023-04-01T04:55:49;96608.69;;;7.16;100.00
77799;BME280;66989;50.426;15.352;2023-04-01T04:58:16;96604.25;;;7.16;100.00
77799;BME280;66989;50.426;15.352;2023-04-01T05:00:42;96601.38;;;7.19;100.00
77799;BME280;66989;50.426;15.352;2023-04-01T05:03:08;96609.09;;;7.21;100.00
77799;BME280;66989;50.426;15.352;2023-04-01T05:05:36;96620.41;;;7.21;100.00
77799;BME280;66989;50.426;15.352;2023-04-01T05:08:01;96617.94;;;7.20;100.00
77799;BME280;66989;50.426;15.352;2023-04-01T05:10:27;96622.91;;;7.23;100.00
77799;BME280;66989;50.426;15.352;2023-04-01T05:12:52;96625.53;;;7.23;100.00
77799;BME280;66989;50.426;15.352;2023-04-01T05:15:18;96620.31;;;7.23;100.00
77799;BME280;66989;50.426;15.352;2023-04-01T05:17:44;96622.91;;;7.23;100.00
77799;BME280;66989;50.426;15.352;2023-04-01T05:20:12;96627.19;;;7.24;100.00
77799;BME280;66989;50.426;15.352;2023-04-01T05:22:39;96622.63;;;7.26;100.00
77799;BME280;66989;50.426;15.352;2023-04-01T05:25:05;96625.13;;;7.28;100.00
77799;BME280;66989;50.426;15.352;2023-04-01T05:27:31;96628.69;;;7.27;100.00
77799;BME280;66989;50.426;15.352;2023-04-01T05:29:57;96632.03;;;7.29;100.00
77799;BME280;66989;50.426;15.352;2023-04-01T05:32:22;96630.09;;;7.31;100.00
77799;BME280;66989;50.426;15.352;2023-04-01T05:34:53;96640.31;;;7.34;100.00
77799;BME280;66989;50.426;15.352;2023-04-01T05:37:19;96639.19;;;7.36;100.00
77799;BME280;66989;50.426;15.352;2023-04-01T05:39:47;96638.13;;;7.39;100.00
77799;BME280;66989;50.426;15.352;2023-04-01T05:42:12;96643.91;;;7.42;100.00
77799;BME280;66989;50.426;15.352;2023-04-01T05:44:38;96644.47;;;7.46;99.65
77799;BME280;66989;50.426;15.352;2023-04-01T05:47:04;96641.44;;;7.51;99.25
77799;BME280;66989;50.426;15.352;2023-04-01T05:49:30;96638.56;;;7.54;99.13
77799;BME280;66989;50.426;15.352;2023-04-01T05:51:56;96636.59;;;7.56;99.53
77799;BME280;66989;50.426;15.352;2023-04-01T05:54:22;96639.78;;;7.59;99.06
77799;BME280;66989;50.426;15.352;2023-04-01T05:56:48;96633.44;;;7.62;99.14
77799;BME280;66989;50.426;15.352;2023-04-01T05:59:13;96640.31;;;7.63;99.04
77799;BME280;66989;50.426;15.352;2023-04-01T06:01:39;96646.41;;;7.63;99.15
77799;BME280;66989;50.426;15.352;2023-04-01T06:04:05;96643.91;;;7.62;99.03
77799;BME280;66989;50.426;15.352;2023-04-01T06:06:31;96649.59;;;7.67;98.68
77799;BME280;66989;50.426;15.352;2023-04-01T06:09:06;96645.56;;;7.63;98.68
77799;BME280;66989;50.426;15.352;2023-04-01T06:14:37;96645.03;;;7.69;98.50
77799;BME280;66989;50.426;15.352;2023-04-01T06:17:22;96655.25;;;7.72;98.07
77799;BME280;66989;50.426;15.352;2023-04-01T06:20:11;96656.63;;;7.76;97.97
77799;BME280;66989;50.426;15.352;2023-04-01T06:22:51;96658.69;;;7.82;97.87
77799;BME280;66989;50.426;15.352;2023-04-01T06:25:32;96668.94;;;7.85;97.36
77799;BME280;66989;50.426;15.352;2023-04-01T06:31:20;96657.75;;;7.93;97.18
77799;BME280;66989;50.426;15.352;2023-04-01T06:50:28;96675.09;;;8.42;95.35
77799;BME280;66989;50.426;15.352;2023-04-01T06:55:50;96677.97;;;8.59;94.62
77799;BME280;66989;50.426;15.352;2023-04-01T07:00:50;96678.63;;;8.61;94.66
77799;BME280;66989;50.426;15.352;2023-04-01T07:03:30;96686.50;;;8.70;94.38
77799;BME280;66989;50.426;15.352;2023-04-01T07:06:02;96681.22;;;8.80;94.07
77799;BME280;66989;50.426;15.352;2023-04-01T07:08:29;96671.25;;;8.84;93.91
77799;BME280;66989;50.426;15.352;2023-04-01T07:11:01;96673.88;;;8.84;93.50
77799;BME280;66989;50.426;15.352;2023-04-01T07:13:36;96684.88;;;8.97;93.62
77799;BME280;66989;50.426;15.352;2023-04-01T07:18:44;96680.66;;;9.14;92.79
77799;BME280;66989;50.426;15.352;2023-04-01T07:21:22;96681.88;;;9.19;92.42
77799;BME280;66989;50.426;15.352;2023-04-01T07:23:56;96683.91;;;9.25;91.52
77799;BME280;66989;50.426;15.352;2023-04-01T07:26:28;96688.03;;;9.28;91.56
77799;BME280;66989;50.426;15.352;2023-04-01T07:28:56;96690.78;;;9.36;91.28
77799;BME280;66989;50.426;15.352;2023-04-01T07:31:40;96688.53;;;9.41;90.03
77799;BME280;66989;50.426;15.352;2023-04-01T07:34:20;96689.19;;;9.43;89.92
77799;BME280;66989;50.426;15.352;2023-04-01T07:37:11;96688.25;;;9.44;90.14
77799;BME280;66989;50.426;15.352;2023-04-01T07:46:27;96695.41;;;9.52;89.60
77799;BME280;66989;50.426;15.352;2023-04-01T07:49:03;96696.38;;;9.69;89.74
77799;BME280;66989;50.426;15.352;2023-04-01T07:51:42;96701.91;;;9.75;88.97
77799;BME280;66989;50.426;15.352;2023-04-01T07:57:07;96698.34;;;10.20;87.78
77799;BME280;66989;50.426;15.352;2023-04-01T08:02:49;96699.56;;;10.70;85.70
77799;BME280;66989;50.426;15.352;2023-04-01T08:08:32;96698.06;;;11.35;81.84
77799;BME280;66989;50.426;15.352;2023-04-01T08:16:43;96706.50;;;11.39;82.96
77799;BME280;66989;50.426;15.352;2023-04-01T08:19:31;96716.63;;;11.60;80.25
77799;BME280;66989;50.426;15.352;2023-04-01T08:22:10;96699.97;;;11.59;79.73
77799;BME280;66989;50.426;15.352;2023-04-01T08:24:43;96709.97;;;11.39;79.82
77799;BME280;66989;50.426;15.352;2023-04-01T08:27:23;96712.75;;;11.38;80.36
77799;BME280;66989;50.426;15.352;2023-04-01T08:32:37;96714.50;;;10.87;83.05
77799;BME280;66989;50.426;15.352;2023-04-01T08:35:16;96712.03;;;10.59;83.69
77799;BME280;66989;50.426;15.352;2023-04-01T08:37:45;96715.03;;;10.65;85.44
77799;BME280;66989;50.426;15.352;2023-04-01T08:58:53;96725.09;;;10.95;84.15
77799;BME280;66989;50.426;15.352;2023-04-01T09:01:51;96721.72;;;11.11;82.68
77799;BME280;66989;50.426;15.352;2023-04-01T09:21:45;96719.47;;;11.75;78.46
77799;BME280;66989;50.426;15.352;2023-04-01T09:24:41;96724.50;;;12.10;77.56
77799;BME280;66989;50.426;15.352;2023-04-01T09:27:29;96728.47;;;12.23;78.23
77799;BME280;66989;50.426;15.352;2023-04-01T09:35:39;96726.22;;;12.44;77.91
77799;BME280;66989;50.426;15.352;2023-04-01T09:40:57;96726.69;;;12.80;74.83
77799;BME280;66989;50.426;15.352;2023-04-01T09:46:18;96719.91;;;12.78;74.85
77799;BME280;66989;50.426;15.352;2023-04-01T10:00:32;96712.19;;;13.94;71.59
77799;BME280;66989;50.426;15.352;2023-04-01T10:09:17;96726.41;;;13.62;70.66
77799;BME280;66989;50.426;15.352;2023-04-01T10:15:06;96731.59;;;13.00;71.28
77799;BME280;66989;50.426;15.352;2023-04-01T10:20:59;96730.47;;;13.50;70.17
77799;BME280;66989;50.426;15.352;2023-04-01T10:46:26;96736.03;;;12.01;80.72
77799;BME280;66989;50.426;15.352;2023-04-01T11:00:25;96738.34;;;11.37;83.73
77799;BME280;66989;50.426;15.352;2023-04-01T11:08:57;96732.81;;;12.24;80.98
77799;BME280;66989;50.426;15.352;2023-04-01T11:25:25;96725.66;;;13.53;76.49
77799;BME280;66989;50.426;15.352;2023-04-01T11:31:09;96706.50;;;16.42;65.37
77799;BME280;66989;50.426;15.352;2023-04-01T11:41:56;96701.13;;;17.41;56.98
77799;BME280;66989;50.426;15.352;2023-04-01T11:44:29;96719.16;;;16.82;57.94
77799;BME280;66989;50.426;15.352;2023-04-01T11:58:16;96722.28;;;14.67;63.95
77799;BME280;66989;50.426;15.352;2023-04-01T12:17:34;96713.19;;;17.02;56.51
77799;BME280;66989;50.426;15.352;2023-04-01T12:44:57;96704.44;;;19.69;50.12
77799;BME280;66989;50.426;15.352;2023-04-01T12:53:28;96731.56;;;16.69;56.66
77799;BME280;66989;50.426;15.352;2023-04-01T12:56:03;96739.31;;;16.06;57.51
77799;BME280;66989;50.426;15.352;2023-04-01T13:17:15;96775.28;;;11.80;76.73
77799;BME280;66989;50.426;15.352;2023-04-01T13:23:06;96776.84;;;11.56;78.35
77799;BME280;66989;50.426;15.352;2023-04-01T13:25:47;96793.13;;;11.44;79.29
77799;BME280;66989;50.426;15.352;2023-04-01T13:28:25;96787.91;;;11.26;78.89
77799;BME280;66989;50.426;15.352;2023-04-01T13:34:19;96788.78;;;11.34;78.99
77799;BME280;66989;50.426;15.352;2023-04-01T13:39:42;96794.47;;;11.56;77.03
77799;BME280;66989;50.426;15.352;2023-04-01T13:42:13;96794.72;;;11.71;76.78
77799;BME280;66989;50.426;15.352;2023-04-01T13:44:50;96800.41;;;11.92;76.65
77799;BME280;66989;50.426;15.352;2023-04-01T14:12:24;96799.00;;;11.72;79.45
77799;BME280;66989;50.426;15.352;2023-04-01T14:18:20;96812.38;;;11.36;79.49
77799;BME280;66989;50.426;15.352;2023-04-01T14:23:46;96814.31;;;11.00;82.12
77799;BME280;66989;50.426;15.352;2023-04-01T14:26:21;96815.22;;;10.91;81.21
77799;BME280;66989;50.426;15.352;2023-04-01T14:28:51;96814.69;;;10.87;80.40
77799;BME280;66989;50.426;15.352;2023-04-01T14:34:44;96805.03;;;11.22;80.81
77799;BME280;66989;50.426;15.352;2023-04-01T14:45:46;96790.94;;;13.05;74.71
77799;BME280;66989;50.426;15.352;2023-04-01T14:48:48;96794.50;;;13.45;74.36
77799;BME280;66989;50.426;15.352;2023-04-01T14:51:23;96786.75;;;13.91;71.41
77799;BME280;66989;50.426;15.352;2023-04-01T14:54:15;96781.13;;;14.48;70.97
77799;BME280;66989;50.426;15.352;2023-04-01T14:56:51;96780.59;;;14.90;69.63
77799;BME280;66989;50.426;15.352;2023-04-01T14:59:28;96782.03;;;14.78;68.09
77799;BME280;66989;50.426;15.352;2023-04-01T15:02:33;96776.06;;;14.61;66.90
77799;BME280;66989;50.426;15.352;2023-04-01T15:05:23;96786.72;;;14.30;67.69
77799;BME280;66989;50.426;15.352;2023-04-01T15:08:17;96788.75;;;14.20;68.15
77799;BME280;66989;50.426;15.352;2023-04-01T15:14:10;96793.97;;;14.05;68.86
77799;BME280;66989;50.426;15.352;2023-04-01T15:16:55;96794.00;;;13.97;69.31
77799;BME280;66989;50.426;15.352;2023-04-01T15:45:14;96833.13;;;11.31;82.53
77799;BME280;66989;50.426;15.352;2023-04-01T15:47:46;96830.72;;;11.20;83.23
77799;BME280;66989;50.426;15.352;2023-04-01T15:50:34;96836.25;;;11.08;83.33
77799;BME280;66989;50.426;15.352;2023-04-01T15:53:18;96832.66;;;11.09;83.22
77799;BME280;66989;50.426;15.352;2023-04-01T15:56:11;96828.06;;;11.11;83.81
77799;BME280;66989;50.426;15.352;2023-04-01T15:59:00;96833.13;;;11.05;83.59
77799;BME280;66989;50.426;15.352;2023-04-01T16:07:43;96847.94;;;10.62;84.04
77799;BME280;66989;50.426;15.352;2023-04-01T16:13:24;96860.50;;;10.50;85.71
77799;BME280;66989;50.426;15.352;2023-04-01T16:19:10;96867.66;;;10.40;85.26
77799;BME280;66989;50.426;15.352;2023-04-01T16:22:05;96861.00;;;10.36;85.65
77799;BME280;66989;50.426;15.352;2023-04-01T16:28:15;96868.19;;;10.44;84.93
77799;BME280;66989;50.426;15.352;2023-04-01T16:30:57;96857.88;;;10.50;85.07
77799;BME280;66989;50.426;15.352;2023-04-01T16:44:27;96862.06;;;10.97;84.23
77799;BME280;66989;50.426;15.352;2023-04-01T16:46:58;96862.16;;;10.87;83.98
77799;BME280;66989;50.426;15.352;2023-04-01T16:54:42;96868.41;;;10.50;85.07
77799;BME280;66989;50.426;15.352;2023-04-01T16:59:38;96879.19;;;10.29;86.37
77799;BME280;66989;50.426;15.352;2023-04-01T17:05:03;96891.50;;;10.11;87.45
77799;BME280;66989;50.426;15.352;2023-04-01T17:12:53;96902.41;;;9.89;89.11
77799;BME280;66989;50.426;15.352;2023-04-01T17:18:22;96920.63;;;9.72;90.13
77799;BME280;66989;50.426;15.352;2023-04-01T17:21:04;96919.69;;;9.64;89.91
77799;BME280;66989;50.426;15.352;2023-04-01T17:26:53;96922.91;;;9.48;92.00
77799;BME280;66989;50.426;15.352;2023-04-01T17:29:28;96939.13;;;9.43;92.16
77799;BME280;66989;50.426;15.352;2023-04-01T17:41:06;96944.69;;;9.30;93.56
77799;BME280;66989;50.426;15.352;2023-04-01T17:43:52;96944.84;;;9.29;93.63
77799;BME280;66989;50.426;15.352;2023-04-01T17:49:36;96953.56;;;9.29;93.94
77799;BME280;66989;50.426;15.352;2023-04-01T17:52:15;96961.56;;;9.28;93.75
77799;BME280;66989;50.426;15.352;2023-04-01T18:00:02;96965.19;;;9.27;93.46
77799;BME280;66989;50.426;15.352;2023-04-01T18:13:50;96978.63;;;9.24;92.47
77799;BME280;66989;50.426;15.352;2023-04-01T18:16:32;96982.09;;;9.24;92.77
77799;BME280;66989;50.426;15.352;2023-04-01T18:27:42;97008.78;;;9.10;94.62
77799;BME280;66989;50.426;15.352;2023-04-01T18:30:15;97010.84;;;9.07;95.37
77799;BME280;66989;50.426;15.352;2023-04-01T18:32:58;97011.25;;;9.02;95.09
77799;BME280;66989;50.426;15.352;2023-04-01T18:38:18;97005.03;;;8.93;95.65
77799;BME280;66989;50.426;15.352;2023-04-01T18:43:30;97007.38;;;8.87;96.15
77799;BME280;66989;50.426;15.352;2023-04-01T18:46:45;97015.41;;;8.85;96.62
77799;BME280;66989;50.426;15.352;2023-04-01T18:49:41;97017.47;;;8.82;96.57
77799;BME280;66989;50.426;15.352;2023-04-01T18:52:16;97020.22;;;8.80;96.67
77799;BME280;66989;50.426;15.352;2023-04-01T18:55:16;97025.63;;;8.78;96.75
77799;BME280;66989;50.426;15.352;2023-04-01T18:57:50;97031.84;;;8.77;96.92
77799;BME280;66989;50.426;15.352;2023-04-01T19:03:07;97030.16;;;8.76;97.01
77799;BME280;66989;50.426;15.352;2023-04-01T19:05:40;97038.19;;;8.75;96.94
77799;BME280;66989;50.426;15.352;2023-04-01T19:11:09;97035.56;;;8.75;97.80
77799;BME280;66989;50.426;15.352;2023-04-01T19:19:46;97038.75;;;8.69;97.70
77799;BME280;66989;50.426;15.352;2023-04-01T19:28:43;97044.53;;;8.63;98.48
77799;BME280;66989;50.426;15.352;2023-04-01T19:36:38;97049.75;;;8.53;98.78
77799;BME280;66989;50.426;15.352;2023-04-01T19:41:54;97059.25;;;8.44;99.11
77799;BME280;66989;50.426;15.352;2023-04-01T19:44:48;97056.91;;;8.41;99.39
77799;BME280;66989;50.426;15.352;2023-04-01T19:47:39;97065.03;;;8.38;99.74
77799;BME280;66989;50.426;15.352;2023-04-01T19:52:46;97064.59;;;8.33;100.00
77799;BME280;66989;50.426;15.352;2023-04-01T19:58:16;97069.28;;;8.30;100.00
77799;BME280;66989;50.426;15.352;2023-04-01T20:00:56;97072.06;;;8.28;100.00
77799;BME280;66989;50.426;15.352;2023-04-01T20:06:34;97070.41;;;8.27;100.00
77799;BME280;66989;50.426;15.352;2023-04-01T20:09:34;97076.63;;;8.26;100.00
77799;BME280;66989;50.426;15.352;2023-04-01T20:12:30;97077.44;;;8.26;100.00
77799;BME280;66989;50.426;15.352;2023-04-01T20:15:01;97083.66;;;8.25;100.00
77799;BME280;66989;50.426;15.352;2023-04-01T20:28:13;97085.84;;;8.20;100.00
77799;BME280;66989;50.426;15.352;2023-04-01T20:47:51;97095.50;;;8.20;100.00
77799;BME280;66989;50.426;15.352;2023-04-01T20:53:15;97107.53;;;8.22;100.00
77799;BME280;66989;50.426;15.352;2023-04-01T20:56:19;97109.34;;;8.22;100.00
77799;BME280;66989;50.426;15.352;2023-04-01T20:58:57;97104.91;;;8.22;100.00
77799;BME280;66989;50.426;15.352;2023-04-01T21:07:15;97111.81;;;8.23;100.00
77799;BME280;66989;50.426;15.352;2023-04-01T21:12:50;97113.25;;;8.27;100.00
77799;BME280;66989;50.426;15.352;2023-04-01T21:18:14;97124.19;;;8.33;100.00
77799;BME280;66989;50.426;15.352;2023-04-01T21:26:08;97119.94;;;8.41;99.95
77799;BME280;66989;50.426;15.352;2023-04-01T21:29:07;97129.59;;;8.41;99.35
77799;BME280;66989;50.426;15.352;2023-04-01T21:34:42;97136.53;;;8.42;98.88
77799;BME280;66989;50.426;15.352;2023-04-01T21:37:26;97139.16;;;8.42;98.82
77799;BME280;66989;50.426;15.352;2023-04-01T21:42:25;97146.91;;;8.43;98.88
77799;BME280;66989;50.426;15.352;2023-04-01T21:45:21;97140.81;;;8.43;99.13
77799;BME280;66989;50.426;15.352;2023-04-01T21:50:43;97152.31;;;8.42;99.25
77799;BME280;66989;50.426;15.352;2023-04-01T21:53:43;97144.53;;;8.40;99.23
77799;BME280;66989;50.426;15.352;2023-04-01T22:07:27;97149.63;;;8.32;100.00
77799;BME280;66989;50.426;15.352;2023-04-01T22:12:25;97154.88;;;8.32;100.00
77799;BME280;66989;50.426;15.352;2023-04-01T22:17:39;97152.25;;;8.32;100.00
77799;BME280;66989;50.426;15.352;2023-04-01T22:23:31;97156.09;;;8.28;100.00
77799;BME280;66989;50.426;15.352;2023-04-01T22:28:59;97151.94;;;8.25;100.00
77799;BME280;66989;50.426;15.352;2023-04-01T22:31:39;97153.00;;;8.23;100.00
77799;BME280;66989;50.426;15.352;2023-04-01T22:34:36;97149.81;;;8.19;100.00
77799;BME280;66989;50.426;15.352;2023-04-01T22:42:44;97146.16;;;8.11;100.00
77799;BME280;66989;50.426;15.352;2023-04-01T22:45:24;97159.53;;;8.08;100.00
77799;BME280;66989;50.426;15.352;2023-04-01T22:48:06;97153.69;;;8.04;100.00
77799;BME280;66989;50.426;15.352;2023-04-01T22:50:44;97162.69;;;8.02;100.00
77799;BME280;66989;50.426;15.352;2023-04-01T22:56:27;97164.84;;;7.96;100.00
77799;BME280;66989;50.426;15.352;2023-04-01T22:59:41;97167.47;;;7.96;100.00
77799;BME280;66989;50.426;15.352;2023-04-01T23:02:18;97163.19;;;7.95;100.00
77799;BME280;66989;50.426;15.352;2023-04-01T23:04:50;97165.91;;;7.94;100.00
77799;BME280;66989;50.426;15.352;2023-04-01T23:10:17;97170.59;;;7.90;100.00
77799;BME280;66989;50.426;15.352;2023-04-01T23:12:46;97175.09;;;7.88;100.00
77799;BME280;66989;50.426;15.352;2023-04-01T23:15:13;97175.47;;;7.84;100.00
77799;BME280;66989;50.426;15.352;2023-04-01T23:20:56;97175.63;;;7.82;100.00
77799;BME280;66989;50.426;15.352;2023-04-01T23:23:33;97177.28;;;7.83;100.00